Elk Creek, New York
Current Conditions -  °F | °C
As of 2:55 PM on Thursday 18 Dec 2014 (Local Time) from KNY0 Reporting Station
Overcast Overcast  
Wind Chill: 22°   Ceiling: 1500
Heat Index: 31°   Visibility: 10mi
Dew Point: 26°   Wind: 10mph
Humidity: 82%   Direction: 280°W
Pressure: 29.88"   Gusts: 23mph
Location:  42.6052°N, 74.8141°W
Report Text: KNY0 181955Z AUTO 28009G20KT 10SM OVC015 M01/M04 A2988 RMK AO2 T10081036
Loading
Personal Weather Stations






























Interactive Weather Map New forecast layout! Learn more

10-Day Weather Forecast

Advertisements
Track Severe Weather on mobile